createdAt,value
2023-03-16T00:03:29.216Z,22.58
2023-03-16T00:07:28.854Z,22.59
2023-03-16T00:11:28.980Z,22.64
2023-03-16T00:15:29.204Z,22.62
2023-03-16T00:19:29.819Z,22.65
2023-03-16T00:23:29.818Z,22.71
2023-03-16T00:27:29.640Z,22.68
2023-03-16T00:31:30.237Z,22.72
2023-03-16T00:35:30.158Z,22.71
2023-03-16T00:39:30.607Z,22.69
2023-03-16T00:43:30.356Z,22.75
2023-03-16T00:47:30.540Z,22.78
2023-03-16T00:51:30.911Z,22.80
2023-03-16T00:55:31.237Z,22.81
2023-03-16T00:59:31.145Z,22.80
2023-03-16T01:03:31.712Z,22.84
2023-03-16T01:07:31.755Z,22.90
2023-03-16T01:11:32.076Z,22.87
2023-03-16T01:15:31.961Z,22.87
2023-03-16T01:19:32.201Z,22.91
2023-03-16T01:23:32.433Z,22.91
2023-03-16T01:27:32.549Z,22.96
2023-03-16T01:31:32.782Z,22.91
2023-03-16T01:35:32.778Z,22.89
2023-03-16T01:39:32.952Z,23.02
2023-03-16T01:43:33.001Z,22.95
2023-03-16T01:47:32.989Z,23.00
2023-03-16T01:51:32.684Z,22.97
2023-03-16T01:55:32.518Z,23.03
2023-03-16T01:59:32.872Z,23.05
2023-03-16T02:03:32.827Z,23.07
2023-03-16T02:07:32.628Z,23.05
2023-03-16T02:11:32.570Z,23.10
2023-03-16T02:15:32.576Z,23.06
2023-03-16T02:19:33.202Z,23.13
2023-03-16T02:23:33.038Z,23.10
2023-03-16T02:27:32.418Z,23.09
2023-03-16T02:31:32.574Z,23.13
2023-03-16T02:35:32.440Z,23.16
2023-03-16T02:39:32.328Z,23.16
2023-03-16T02:43:32.406Z,23.20
2023-03-16T02:47:32.587Z,23.17
2023-03-16T02:51:32.731Z,23.25
2023-03-16T02:55:32.799Z,23.22
2023-03-16T02:59:32.922Z,23.20
2023-03-16T03:03:34.065Z,23.22
2023-03-16T03:07:33.449Z,23.25
2023-03-16T03:11:33.474Z,23.31
2023-03-16T03:15:33.276Z,23.25
2023-03-16T03:19:33.482Z,23.26
2023-03-16T03:23:33.348Z,23.26
2023-03-16T03:27:33.639Z,23.33
2023-03-16T03:31:33.597Z,23.33
2023-03-16T03:35:33.789Z,23.36
2023-03-16T03:39:33.453Z,23.37
2023-03-16T03:43:33.429Z,23.32
2023-03-16T03:47:33.468Z,23.35
2023-03-16T03:51:34.030Z,23.35
2023-03-16T03:55:33.883Z,23.36
2023-03-16T03:59:33.809Z,23.40
2023-03-16T04:03:33.815Z,23.40
2023-03-16T04:07:33.437Z,23.41
2023-03-16T04:11:33.332Z,23.43
2023-03-16T04:15:33.866Z,23.47
2023-03-16T04:19:33.614Z,23.48
2023-03-16T04:23:33.384Z,23.47
2023-03-16T04:27:33.354Z,23.50
2023-03-16T04:31:33.347Z,23.51
2023-03-16T04:35:33.383Z,23.54
2023-03-16T04:39:33.503Z,23.52
2023-03-16T04:43:33.347Z,23.52
2023-03-16T04:47:33.329Z,23.58
2023-03-16T04:51:33.753Z,23.55
2023-03-16T04:55:33.627Z,23.56
2023-03-16T04:59:34.192Z,23.58
2023-03-16T05:03:33.567Z,23.38
2023-03-16T05:07:34.007Z,23.19
2023-03-16T05:11:34.231Z,22.94
2023-03-16T05:15:34.160Z,22.94
2023-03-16T05:19:34.086Z,22.85
2023-03-16T05:23:33.951Z,22.62
2023-03-16T05:27:33.929Z,22.53
2023-03-16T05:31:33.994Z,22.32
2023-03-16T05:35:33.959Z,22.29
2023-03-16T05:39:33.877Z,22.21
2023-03-16T05:43:34.217Z,22.19
2023-03-16T05:47:33.728Z,22.06
2023-03-16T05:51:33.738Z,22.12
2023-03-16T05:55:33.649Z,22.21
2023-03-16T05:59:33.707Z,22.13
2023-03-16T06:03:35.088Z,22.12
2023-03-16T06:07:33.545Z,22.15
2023-03-16T06:11:33.608Z,22.03
2023-03-16T06:15:33.546Z,22.15
2023-03-16T06:19:33.509Z,22.18
2023-03-16T06:23:33.476Z,22.20
2023-03-16T06:27:34.874Z,22.23
2023-03-16T06:31:33.778Z,22.34
2023-03-16T06:35:34.027Z,23.52
2023-03-16T06:39:33.301Z,23.45
2023-03-16T06:43:34.440Z,23.86
2023-03-16T06:47:34.394Z,24.38
2023-03-16T06:51:33.790Z,24.43
2023-03-16T06:55:33.892Z,24.68
2023-03-16T06:59:34.234Z,24.83
2023-03-16T07:03:34.173Z,24.68
2023-03-16T07:07:37.068Z,24.82
2023-03-16T07:11:34.484Z,24.85
2023-03-16T07:15:33.981Z,24.97
2023-03-16T07:19:34.004Z,25.03
2023-03-16T07:23:33.897Z,25.21
2023-03-16T07:27:34.011Z,25.09
2023-03-16T07:43:24.102Z,20.13
2023-03-16T07:47:26.393Z,21.33
2023-03-16T07:51:23.556Z,22.89
2023-03-16T07:55:24.998Z,23.83
2023-03-16T07:59:23.716Z,24.13
2023-03-16T08:03:23.138Z,24.07
2023-03-16T08:07:23.555Z,23.90
2023-03-16T08:11:23.375Z,23.99
2023-03-16T08:15:23.503Z,24.25
2023-03-16T08:19:23.537Z,24.22
2023-03-16T08:23:24.517Z,24.44
2023-03-16T08:27:24.024Z,24.39
2023-03-16T08:31:24.452Z,24.44
2023-03-16T08:35:24.064Z,23.02
2023-03-16T08:39:23.801Z,23.55
2023-03-16T08:43:26.093Z,23.96
2023-03-16T08:47:24.033Z,23.97
2023-03-16T08:51:24.270Z,23.92
2023-03-16T08:55:24.497Z,23.99
2023-03-16T08:59:30.048Z,24.00
2023-03-16T09:03:27.248Z,24.02
2023-03-16T09:07:24.776Z,23.90
2023-03-16T09:11:24.408Z,24.06
2023-03-16T09:15:24.463Z,23.99
2023-03-16T09:19:24.236Z,23.80
2023-03-16T09:23:24.076Z,23.71
2023-03-16T09:27:24.089Z,20.09
2023-03-16T09:31:24.401Z,17.00
2023-03-16T09:35:24.049Z,18.33
2023-03-16T09:39:24.040Z,19.51
2023-03-16T09:43:24.347Z,20.09
2023-03-16T09:47:25.282Z,21.00
2023-03-16T09:51:24.407Z,21.54
2023-03-16T09:55:24.519Z,21.91
2023-03-16T09:59:24.204Z,22.29
2023-03-16T10:03:24.969Z,22.43
2023-03-16T10:07:25.325Z,22.52
2023-03-16T10:11:24.320Z,22.45
2023-03-16T10:15:25.239Z,22.63
2023-03-16T10:19:24.351Z,22.47
2023-03-16T10:23:24.219Z,22.37
2023-03-16T10:27:25.010Z,22.48
2023-03-16T10:31:25.047Z,23.07
2023-03-16T10:35:24.655Z,23.01
2023-03-16T10:39:25.308Z,21.91
2023-03-16T10:43:24.076Z,21.33
2023-03-16T10:47:24.306Z,20.86
2023-03-16T10:51:24.000Z,20.54
2023-03-16T10:55:24.354Z,20.25
2023-03-16T10:59:24.715Z,20.00
2023-03-16T11:03:24.690Z,20.00
2023-03-16T11:07:24.299Z,19.96
2023-03-16T14:30:00.693Z,19.52
2023-03-16T14:34:00.614Z,19.52
2023-03-16T14:38:00.696Z,19.53
2023-03-16T14:42:00.550Z,19.56
2023-03-16T14:46:00.727Z,19.55
2023-03-16T14:50:00.496Z,19.62
2023-03-16T14:54:00.484Z,19.61
2023-03-16T14:58:00.426Z,19.68
2023-03-16T15:02:00.748Z,19.59
2023-03-16T15:06:00.416Z,19.74
2023-03-16T15:10:00.276Z,19.72
2023-03-16T15:14:00.313Z,19.73
2023-03-16T15:18:00.282Z,19.76
2023-03-16T15:22:00.829Z,19.76
2023-03-16T15:26:00.256Z,19.81
2023-03-16T15:30:00.147Z,19.80
2023-03-16T15:34:00.210Z,19.89
2023-03-16T15:38:00.217Z,19.90
2023-03-16T15:42:00.312Z,19.90
2023-03-16T15:46:00.267Z,20.02
2023-03-16T15:50:00.239Z,20.03
2023-03-16T15:54:00.842Z,20.12
2023-03-16T15:58:00.207Z,20.23
2023-03-16T16:02:00.549Z,20.32
2023-03-16T16:06:00.558Z,20.39
2023-03-16T16:10:00.722Z,20.53
2023-03-16T16:14:00.581Z,20.59
2023-03-16T16:18:20.329Z,20.60
2023-03-16T16:22:01.833Z,20.60
2023-03-16T16:26:00.445Z,20.66
2023-03-16T16:30:00.208Z,20.65
2023-03-16T16:34:00.751Z,20.66
2023-03-16T16:38:00.135Z,20.72
2023-03-16T16:42:00.289Z,20.72
2023-03-16T16:46:00.449Z,20.73
2023-03-16T16:50:00.474Z,20.85
2023-03-16T16:54:00.944Z,20.86
2023-03-16T16:58:00.977Z,20.86
2023-03-16T17:02:01.442Z,20.94
2023-03-16T17:06:01.423Z,20.98
2023-03-16T17:10:01.213Z,20.97
2023-03-16T17:14:01.297Z,21.02
2023-03-16T17:18:01.270Z,21.09
2023-03-16T17:22:01.036Z,21.04
2023-03-16T17:26:01.574Z,21.15
2023-03-16T17:30:01.239Z,21.18
2023-03-16T17:34:00.961Z,21.21
2023-03-16T17:38:00.892Z,21.34
2023-03-16T17:42:00.860Z,21.29
2023-03-16T17:46:00.819Z,21.36
2023-03-16T17:50:01.578Z,21.34
2023-03-16T17:54:00.962Z,21.39
2023-03-16T17:58:00.724Z,21.36
2023-03-16T18:02:00.963Z,21.38
2023-03-16T18:06:00.587Z,21.38
2023-03-16T18:10:00.609Z,21.46
2023-03-16T18:14:00.632Z,21.50
2023-03-16T18:18:01.053Z,21.39
2023-03-16T18:22:01.168Z,21.30
2023-03-16T18:26:01.162Z,21.42
2023-03-16T18:30:01.678Z,21.43
2023-03-16T18:34:01.569Z,22.29
2023-03-16T18:38:01.679Z,21.72
2023-03-16T18:42:01.694Z,21.73
2023-03-16T18:46:02.115Z,21.64
2023-03-16T18:50:02.042Z,21.47
2023-03-16T18:54:02.013Z,21.46
2023-03-16T18:58:02.009Z,21.31
2023-03-16T19:02:02.644Z,21.26
2023-03-16T19:06:02.084Z,21.19
2023-03-16T19:10:02.214Z,21.01
2023-03-16T19:14:02.374Z,20.73
2023-03-16T19:18:02.402Z,20.43
2023-03-16T19:22:02.267Z,20.38
2023-03-16T19:26:02.324Z,20.34
2023-03-16T19:30:02.285Z,20.37
2023-03-16T19:34:02.182Z,20.34
2023-03-16T19:38:02.135Z,20.39
2023-03-16T19:42:02.361Z,20.40
2023-03-16T19:46:02.292Z,20.48
2023-03-16T19:50:02.325Z,20.45
2023-03-16T19:54:02.369Z,20.54
2023-03-16T19:58:02.104Z,20.52
2023-03-16T20:02:02.328Z,20.55
2023-03-16T20:06:02.408Z,20.60
2023-03-16T20:10:02.510Z,20.63
2023-03-16T20:14:02.578Z,20.66
2023-03-16T20:18:02.813Z,20.67
2023-03-16T20:22:02.923Z,20.75
2023-03-16T20:26:03.287Z,20.77
2023-03-16T20:30:02.687Z,20.77
2023-03-16T20:34:02.937Z,20.85
2023-03-16T20:38:03.099Z,20.86
2023-03-16T20:42:02.971Z,20.86
2023-03-16T20:46:02.915Z,20.91
2023-03-16T20:50:02.929Z,20.94
2023-03-16T20:54:03.083Z,21.03
2023-03-16T20:58:03.470Z,20.95
2023-03-16T21:02:03.133Z,20.98
2023-03-16T21:06:02.770Z,20.94
2023-03-16T21:10:02.992Z,20.98
2023-03-16T21:14:02.706Z,21.08
2023-03-16T21:18:02.917Z,21.05
2023-03-16T21:22:03.034Z,21.05
2023-03-16T21:26:02.828Z,21.14
2023-03-16T21:30:02.556Z,21.09
2023-03-16T21:34:02.555Z,21.18
2023-03-16T21:38:02.485Z,21.19
2023-03-16T21:42:02.495Z,21.16
2023-03-16T21:46:02.428Z,21.22
2023-03-16T21:50:02.415Z,21.18
2023-03-16T21:54:02.428Z,21.22
2023-03-16T21:58:02.262Z,21.28
2023-03-16T22:02:02.660Z,21.26
2023-03-16T22:06:02.619Z,21.31
2023-03-16T22:10:02.730Z,21.25
2023-03-16T22:14:02.713Z,21.29
2023-03-16T22:18:02.890Z,21.26
2023-03-16T22:22:02.965Z,21.26
2023-03-16T22:26:03.068Z,21.32
2023-03-16T22:30:03.285Z,21.34
2023-03-16T22:34:03.360Z,21.33
2023-03-16T22:38:03.541Z,21.40
2023-03-16T22:42:03.736Z,21.40
2023-03-16T22:46:04.008Z,21.36
2023-03-16T22:50:04.024Z,21.39
2023-03-16T22:54:04.186Z,21.38
2023-03-16T22:58:04.441Z,21.36
2023-03-16T23:02:04.564Z,21.38
2023-03-16T23:06:06.425Z,21.43
2023-03-16T23:10:04.796Z,21.39
2023-03-16T23:14:04.726Z,21.42
2023-03-16T23:18:04.737Z,21.43
2023-03-16T23:22:04.794Z,21.39
2023-03-16T23:26:04.577Z,21.42
2023-03-16T23:30:04.560Z,21.48
2023-03-16T23:34:04.791Z,21.48
2023-03-16T23:38:04.660Z,21.48
2023-03-16T23:42:04.433Z,21.46
2023-03-16T23:46:04.464Z,21.49
2023-03-16T23:50:04.755Z,21.47
2023-03-16T23:54:04.386Z,21.53
2023-03-16T23:58:04.719Z,21.52
